sensor_id;sensor_type;location;lat;lon;timestamp;P1;durP1;ratioP1;P2;durP2;ratioP2
11504;SDS011;5809;53.262;10.408;2024-01-30T00:01:16;11.83;;;7.70;;
11504;SDS011;5809;53.262;10.408;2024-01-30T00:03:43;8.77;;;7.10;;
11504;SDS011;5809;53.262;10.408;2024-01-30T00:06:11;10.63;;;6.57;;
11504;SDS011;5809;53.262;10.408;2024-01-30T00:08:39;8.77;;;6.93;;
11504;SDS011;5809;53.262;10.408;2024-01-30T00:11:07;9.60;;;6.97;;
11504;SDS011;5809;53.262;10.408;2024-01-30T00:13:34;9.83;;;6.70;;
11504;SDS011;5809;53.262;10.408;2024-01-30T00:16:00;12.33;;;7.13;;
11504;SDS011;5809;53.262;10.408;2024-01-30T00:18:27;14.67;;;7.60;;
11504;SDS011;5809;53.262;10.408;2024-01-30T00:20:54;8.83;;;7.30;;
11504;SDS011;5809;53.262;10.408;2024-01-30T00:23:21;9.20;;;7.07;;
11504;SDS011;5809;53.262;10.408;2024-01-30T00:25:49;15.27;;;7.20;;
11504;SDS011;5809;53.262;10.408;2024-01-30T00:28:16;8.37;;;6.87;;
11504;SDS011;5809;53.262;10.408;2024-01-30T00:30:43;9.23;;;7.10;;
11504;SDS011;5809;53.262;10.408;2024-01-30T00:33:10;8.33;;;6.97;;
11504;SDS011;5809;53.262;10.408;2024-01-30T00:35:37;10.03;;;7.07;;
11504;SDS011;5809;53.262;10.408;2024-01-30T00:38:03;8.87;;;7.17;;
11504;SDS011;5809;53.262;10.408;2024-01-30T00:40:32;8.97;;;7.27;;
11504;SDS011;5809;53.262;10.408;2024-01-30T00:43:01;11.30;;;7.43;;
11504;SDS011;5809;53.262;10.408;2024-01-30T00:45:27;8.13;;;6.80;;
11504;SDS011;5809;53.262;10.408;2024-01-30T00:47:54;10.33;;;6.83;;
11504;SDS011;5809;53.262;10.408;2024-01-30T00:50:21;10.67;;;7.20;;
11504;SDS011;5809;53.262;10.408;2024-01-30T00:52:49;8.53;;;6.93;;
11504;SDS011;5809;53.262;10.408;2024-01-30T00:55:15;10.63;;;7.57;;
11504;SDS011;5809;53.262;10.408;2024-01-30T00:57:42;10.43;;;7.40;;
11504;SDS011;5809;53.262;10.408;2024-01-30T01:00:11;8.70;;;7.07;;
11504;SDS011;5809;53.262;10.408;2024-01-30T01:02:41;11.57;;;7.27;;
11504;SDS011;5809;53.262;10.408;2024-01-30T01:05:08;10.60;;;6.97;;
11504;SDS011;5809;53.262;10.408;2024-01-30T01:07:35;10.90;;;7.87;;
11504;SDS011;5809;53.262;10.408;2024-01-30T01:10:03;8.50;;;7.27;;
11504;SDS011;5809;53.262;10.408;2024-01-30T01:12:30;8.97;;;7.97;;
11504;SDS011;5809;53.262;10.408;2024-01-30T01:14:56;11.70;;;7.70;;
11504;SDS011;5809;53.262;10.408;2024-01-30T01:17:25;10.17;;;7.70;;
11504;SDS011;5809;53.262;10.408;2024-01-30T01:19:52;9.57;;;7.60;;
11504;SDS011;5809;53.262;10.408;2024-01-30T01:22:19;10.27;;;7.50;;
11504;SDS011;5809;53.262;10.408;2024-01-30T01:24:46;13.37;;;9.67;;
11504;SDS011;5809;53.262;10.408;2024-01-30T01:27:12;10.53;;;7.77;;
11504;SDS011;5809;53.262;10.408;2024-01-30T01:29:40;13.30;;;8.40;;
11504;SDS011;5809;53.262;10.408;2024-01-30T01:32:06;9.97;;;7.83;;
11504;SDS011;5809;53.262;10.408;2024-01-30T01:34:35;11.77;;;8.03;;
11504;SDS011;5809;53.262;10.408;2024-01-30T01:37:01;10.63;;;7.70;;
11504;SDS011;5809;53.262;10.408;2024-01-30T01:39:28;10.67;;;7.67;;
11504;SDS011;5809;53.262;10.408;2024-01-30T01:41:56;11.00;;;7.40;;
11504;SDS011;5809;53.262;10.408;2024-01-30T01:44:22;10.07;;;8.33;;
11504;SDS011;5809;53.262;10.408;2024-01-30T01:46:49;9.57;;;7.53;;
11504;SDS011;5809;53.262;10.408;2024-01-30T01:49:17;8.73;;;7.20;;
11504;SDS011;5809;53.262;10.408;2024-01-30T01:51:45;11.87;;;7.67;;
11504;SDS011;5809;53.262;10.408;2024-01-30T01:54:14;9.90;;;7.70;;
11504;SDS011;5809;53.262;10.408;2024-01-30T01:56:42;11.77;;;7.77;;
11504;SDS011;5809;53.262;10.408;2024-01-30T01:59:10;12.13;;;8.10;;
11504;SDS011;5809;53.262;10.408;2024-01-30T02:01:36;10.63;;;7.90;;
11504;SDS011;5809;53.262;10.408;2024-01-30T02:04:04;12.43;;;7.83;;
11504;SDS011;5809;53.262;10.408;2024-01-30T02:06:31;10.37;;;8.00;;
11504;SDS011;5809;53.262;10.408;2024-01-30T02:09:00;10.40;;;7.73;;
11504;SDS011;5809;53.262;10.408;2024-01-30T02:11:29;11.43;;;7.87;;
11504;SDS011;5809;53.262;10.408;2024-01-30T02:13:56;9.90;;;7.67;;
11504;SDS011;5809;53.262;10.408;2024-01-30T02:16:24;12.33;;;7.73;;
11504;SDS011;5809;53.262;10.408;2024-01-30T02:18:52;10.97;;;7.77;;
11504;SDS011;5809;53.262;10.408;2024-01-30T02:21:20;12.00;;;8.37;;
11504;SDS011;5809;53.262;10.408;2024-01-30T02:23:47;10.87;;;7.57;;
11504;SDS011;5809;53.262;10.408;2024-01-30T02:26:15;12.40;;;8.53;;
11504;SDS011;5809;53.262;10.408;2024-01-30T02:28:42;11.77;;;8.43;;
11504;SDS011;5809;53.262;10.408;2024-01-30T02:31:09;10.93;;;8.37;;
11504;SDS011;5809;53.262;10.408;2024-01-30T02:33:36;10.77;;;8.20;;
11504;SDS011;5809;53.262;10.408;2024-01-30T02:36:03;10.40;;;8.70;;
11504;SDS011;5809;53.262;10.408;2024-01-30T02:38:32;11.67;;;8.23;;
11504;SDS011;5809;53.262;10.408;2024-01-30T02:40:58;12.80;;;8.73;;
11504;SDS011;5809;53.262;10.408;2024-01-30T02:43:26;12.03;;;9.10;;
11504;SDS011;5809;53.262;10.408;2024-01-30T02:45:52;13.27;;;8.53;;
11504;SDS011;5809;53.262;10.408;2024-01-30T02:48:19;10.93;;;8.50;;
11504;SDS011;5809;53.262;10.408;2024-01-30T02:50:46;12.00;;;8.57;;
11504;SDS011;5809;53.262;10.408;2024-01-30T02:53:13;11.73;;;8.57;;
11504;SDS011;5809;53.262;10.408;2024-01-30T02:55:41;11.63;;;8.93;;
11504;SDS011;5809;53.262;10.408;2024-01-30T02:58:08;12.57;;;9.17;;
11504;SDS011;5809;53.262;10.408;2024-01-30T03:00:35;11.83;;;8.77;;
11504;SDS011;5809;53.262;10.408;2024-01-30T03:03:02;12.20;;;9.70;;
11504;SDS011;5809;53.262;10.408;2024-01-30T03:05:29;11.70;;;9.37;;
11504;SDS011;5809;53.262;10.408;2024-01-30T03:07:55;12.17;;;9.07;;
11504;SDS011;5809;53.262;10.408;2024-01-30T03:10:22;11.20;;;9.13;;
11504;SDS011;5809;53.262;10.408;2024-01-30T03:12:51;12.67;;;9.10;;
11504;SDS011;5809;53.262;10.408;2024-01-30T03:15:17;9.87;;;8.40;;
11504;SDS011;5809;53.262;10.408;2024-01-30T03:17:44;13.27;;;9.10;;
11504;SDS011;5809;53.262;10.408;2024-01-30T03:20:11;11.43;;;9.10;;
11504;SDS011;5809;53.262;10.408;2024-01-30T03:22:38;11.80;;;9.07;;
11504;SDS011;5809;53.262;10.408;2024-01-30T03:25:06;14.10;;;9.50;;
11504;SDS011;5809;53.262;10.408;2024-01-30T03:27:33;11.60;;;9.33;;
11504;SDS011;5809;53.262;10.408;2024-01-30T03:30:01;11.73;;;10.10;;
11504;SDS011;5809;53.262;10.408;2024-01-30T03:32:28;11.70;;;9.37;;
11504;SDS011;5809;53.262;10.408;2024-01-30T03:34:55;14.10;;;10.13;;
11504;SDS011;5809;53.262;10.408;2024-01-30T03:37:23;12.97;;;9.83;;
11504;SDS011;5809;53.262;10.408;2024-01-30T03:39:49;11.97;;;9.20;;
11504;SDS011;5809;53.262;10.408;2024-01-30T03:42:16;11.20;;;9.43;;
11504;SDS011;5809;53.262;10.408;2024-01-30T03:44:43;13.13;;;10.13;;
11504;SDS011;5809;53.262;10.408;2024-01-30T03:47:11;11.67;;;9.40;;
11504;SDS011;5809;53.262;10.408;2024-01-30T03:49:38;13.53;;;9.90;;
11504;SDS011;5809;53.262;10.408;2024-01-30T03:52:06;11.07;;;9.43;;
11504;SDS011;5809;53.262;10.408;2024-01-30T03:54:32;11.23;;;9.17;;
11504;SDS011;5809;53.262;10.408;2024-01-30T03:56:59;13.47;;;9.77;;
11504;SDS011;5809;53.262;10.408;2024-01-30T03:59:27;11.97;;;9.37;;
11504;SDS011;5809;53.262;10.408;2024-01-30T04:01:54;12.13;;;9.70;;
11504;SDS011;5809;53.262;10.408;2024-01-30T04:04:22;15.77;;;10.57;;
11504;SDS011;5809;53.262;10.408;2024-01-30T04:06:49;12.43;;;10.27;;
11504;SDS011;5809;53.262;10.408;2024-01-30T04:09:16;11.57;;;9.73;;
11504;SDS011;5809;53.262;10.408;2024-01-30T04:11:43;10.97;;;9.77;;
11504;SDS011;5809;53.262;10.408;2024-01-30T04:14:10;13.37;;;10.27;;
11504;SDS011;5809;53.262;10.408;2024-01-30T04:16:37;11.27;;;9.70;;
11504;SDS011;5809;53.262;10.408;2024-01-30T04:19:04;12.60;;;9.60;;
11504;SDS011;5809;53.262;10.408;2024-01-30T04:21:32;12.13;;;10.30;;
11504;SDS011;5809;53.262;10.408;2024-01-30T04:23:59;12.67;;;10.37;;
11504;SDS011;5809;53.262;10.408;2024-01-30T04:26:26;15.80;;;10.87;;
11504;SDS011;5809;53.262;10.408;2024-01-30T04:28:53;13.20;;;10.27;;
11504;SDS011;5809;53.262;10.408;2024-01-30T04:31:20;15.13;;;11.30;;
11504;SDS011;5809;53.262;10.408;2024-01-30T04:33:47;15.53;;;10.20;;
11504;SDS011;5809;53.262;10.408;2024-01-30T04:36:14;16.00;;;10.60;;
11504;SDS011;5809;53.262;10.408;2024-01-30T04:38:42;13.70;;;10.90;;
11504;SDS011;5809;53.262;10.408;2024-01-30T04:41:09;13.77;;;10.57;;
11504;SDS011;5809;53.262;10.408;2024-01-30T04:43:36;15.40;;;10.97;;
11504;SDS011;5809;53.262;10.408;2024-01-30T04:46:03;15.37;;;11.80;;
11504;SDS011;5809;53.262;10.408;2024-01-30T04:48:30;12.80;;;10.53;;
11504;SDS011;5809;53.262;10.408;2024-01-30T04:50:58;18.23;;;10.70;;
11504;SDS011;5809;53.262;10.408;2024-01-30T04:53:27;13.70;;;10.63;;
11504;SDS011;5809;53.262;10.408;2024-01-30T04:55:57;12.90;;;10.87;;
11504;SDS011;5809;53.262;10.408;2024-01-30T04:58:23;14.50;;;10.40;;
11504;SDS011;5809;53.262;10.408;2024-01-30T05:00:50;14.03;;;10.10;;
11504;SDS011;5809;53.262;10.408;2024-01-30T05:03:17;15.50;;;12.10;;
11504;SDS011;5809;53.262;10.408;2024-01-30T05:05:44;14.40;;;11.40;;
11504;SDS011;5809;53.262;10.408;2024-01-30T05:08:11;14.13;;;10.97;;
11504;SDS011;5809;53.262;10.408;2024-01-30T05:10:38;14.20;;;10.77;;
11504;SDS011;5809;53.262;10.408;2024-01-30T05:13:06;12.83;;;11.03;;
11504;SDS011;5809;53.262;10.408;2024-01-30T05:15:33;14.93;;;11.10;;
11504;SDS011;5809;53.262;10.408;2024-01-30T05:18:00;17.20;;;11.83;;
11504;SDS011;5809;53.262;10.408;2024-01-30T05:20:27;15.20;;;11.90;;
11504;SDS011;5809;53.262;10.408;2024-01-30T05:22:54;15.90;;;11.73;;
11504;SDS011;5809;53.262;10.408;2024-01-30T05:25:21;14.07;;;11.60;;
11504;SDS011;5809;53.262;10.408;2024-01-30T05:27:48;16.63;;;12.63;;
11504;SDS011;5809;53.262;10.408;2024-01-30T05:30:17;16.13;;;12.83;;
11504;SDS011;5809;53.262;10.408;2024-01-30T05:32:43;14.97;;;11.87;;
11504;SDS011;5809;53.262;10.408;2024-01-30T05:35:10;15.20;;;12.20;;
11504;SDS011;5809;53.262;10.408;2024-01-30T05:37:37;18.27;;;12.83;;
11504;SDS011;5809;53.262;10.408;2024-01-30T05:40:04;17.83;;;13.07;;
11504;SDS011;5809;53.262;10.408;2024-01-30T05:42:33;15.47;;;12.47;;
11504;SDS011;5809;53.262;10.408;2024-01-30T05:44:59;18.60;;;12.73;;
11504;SDS011;5809;53.262;10.408;2024-01-30T05:47:28;18.10;;;12.70;;
11504;SDS011;5809;53.262;10.408;2024-01-30T05:49:55;17.17;;;12.43;;
11504;SDS011;5809;53.262;10.408;2024-01-30T05:52:22;17.53;;;12.60;;
11504;SDS011;5809;53.262;10.408;2024-01-30T05:54:49;18.10;;;13.47;;
11504;SDS011;5809;53.262;10.408;2024-01-30T05:57:16;17.60;;;13.47;;
11504;SDS011;5809;53.262;10.408;2024-01-30T05:59:43;15.53;;;13.60;;
11504;SDS011;5809;53.262;10.408;2024-01-30T06:02:10;16.10;;;13.07;;
11504;SDS011;5809;53.262;10.408;2024-01-30T06:04:39;18.17;;;13.60;;
11504;SDS011;5809;53.262;10.408;2024-01-30T06:07:05;18.03;;;13.90;;
11504;SDS011;5809;53.262;10.408;2024-01-30T06:09:33;16.80;;;13.50;;
11504;SDS011;5809;53.262;10.408;2024-01-30T06:12:00;16.83;;;13.67;;
11504;SDS011;5809;53.262;10.408;2024-01-30T06:14:27;16.97;;;13.13;;
11504;SDS011;5809;53.262;10.408;2024-01-30T06:16:54;19.10;;;13.37;;
11504;SDS011;5809;53.262;10.408;2024-01-30T06:19:20;19.73;;;14.23;;
11504;SDS011;5809;53.262;10.408;2024-01-30T06:21:49;18.53;;;13.43;;
11504;SDS011;5809;53.262;10.408;2024-01-30T06:24:15;18.30;;;14.43;;
11504;SDS011;5809;53.262;10.408;2024-01-30T06:26:42;16.57;;;13.80;;
11504;SDS011;5809;53.262;10.408;2024-01-30T06:29:09;17.30;;;13.63;;
11504;SDS011;5809;53.262;10.408;2024-01-30T06:31:39;17.67;;;13.50;;
11504;SDS011;5809;53.262;10.408;2024-01-30T06:34:06;16.20;;;13.30;;
11504;SDS011;5809;53.262;10.408;2024-01-30T06:36:33;17.07;;;13.67;;
11504;SDS011;5809;53.262;10.408;2024-01-30T06:39:01;18.17;;;14.17;;
11504;SDS011;5809;53.262;10.408;2024-01-30T06:41:28;18.17;;;14.00;;
11504;SDS011;5809;53.262;10.408;2024-01-30T06:43:56;17.10;;;13.60;;
11504;SDS011;5809;53.262;10.408;2024-01-30T06:46:22;20.03;;;15.00;;
11504;SDS011;5809;53.262;10.408;2024-01-30T06:48:50;16.90;;;14.10;;
11504;SDS011;5809;53.262;10.408;2024-01-30T06:51:16;20.70;;;14.10;;
11504;SDS011;5809;53.262;10.408;2024-01-30T06:53:43;17.03;;;13.73;;
11504;SDS011;5809;53.262;10.408;2024-01-30T06:56:12;15.50;;;13.60;;
11504;SDS011;5809;53.262;10.408;2024-01-30T06:58:38;17.03;;;13.57;;
11504;SDS011;5809;53.262;10.408;2024-01-30T07:01:06;21.13;;;13.67;;
11504;SDS011;5809;53.262;10.408;2024-01-30T07:03:33;17.33;;;13.83;;
11504;SDS011;5809;53.262;10.408;2024-01-30T07:06:00;20.43;;;14.17;;
11504;SDS011;5809;53.262;10.408;2024-01-30T07:08:27;18.33;;;14.20;;
11504;SDS011;5809;53.262;10.408;2024-01-30T07:10:54;21.10;;;14.77;;
11504;SDS011;5809;53.262;10.408;2024-01-30T07:13:22;19.27;;;14.57;;
11504;SDS011;5809;53.262;10.408;2024-01-30T07:15:49;18.33;;;14.17;;
11504;SDS011;5809;53.262;10.408;2024-01-30T07:18:16;20.10;;;14.83;;
11504;SDS011;5809;53.262;10.408;2024-01-30T07:20:43;18.47;;;14.03;;
11504;SDS011;5809;53.262;10.408;2024-01-30T07:23:12;18.93;;;14.97;;
11504;SDS011;5809;53.262;10.408;2024-01-30T07:25:42;18.37;;;13.83;;
11504;SDS011;5809;53.262;10.408;2024-01-30T07:28:10;19.30;;;14.97;;
11504;SDS011;5809;53.262;10.408;2024-01-30T07:30:38;20.50;;;14.27;;
11504;SDS011;5809;53.262;10.408;2024-01-30T07:33:05;17.47;;;14.23;;
11504;SDS011;5809;53.262;10.408;2024-01-30T07:35:33;19.13;;;13.83;;
11504;SDS011;5809;53.262;10.408;2024-01-30T07:38:00;19.13;;;13.80;;
11504;SDS011;5809;53.262;10.408;2024-01-30T07:40:27;19.73;;;14.03;;
11504;SDS011;5809;53.262;10.408;2024-01-30T07:42:55;18.27;;;13.13;;
11504;SDS011;5809;53.262;10.408;2024-01-30T07:45:22;20.93;;;13.73;;
11504;SDS011;5809;53.262;10.408;2024-01-30T07:47:51;17.23;;;12.90;;
11504;SDS011;5809;53.262;10.408;2024-01-30T07:50:18;18.10;;;13.13;;
11504;SDS011;5809;53.262;10.408;2024-01-30T07:52:45;17.73;;;13.60;;
11504;SDS011;5809;53.262;10.408;2024-01-30T07:55:16;17.33;;;12.27;;
11504;SDS011;5809;53.262;10.408;2024-01-30T07:57:44;18.03;;;13.67;;
11504;SDS011;5809;53.262;10.408;2024-01-30T08:00:11;18.47;;;12.20;;
11504;SDS011;5809;53.262;10.408;2024-01-30T08:02:39;16.70;;;12.47;;
11504;SDS011;5809;53.262;10.408;2024-01-30T08:05:07;17.97;;;13.33;;
11504;SDS011;5809;53.262;10.408;2024-01-30T08:07:36;20.43;;;13.20;;
11504;SDS011;5809;53.262;10.408;2024-01-30T08:10:02;18.03;;;12.50;;
11504;SDS011;5809;53.262;10.408;2024-01-30T08:12:29;20.00;;;12.63;;
11504;SDS011;5809;53.262;10.408;2024-01-30T08:14:56;16.53;;;12.40;;
11504;SDS011;5809;53.262;10.408;2024-01-30T08:17:23;18.97;;;12.47;;
11504;SDS011;5809;53.262;10.408;2024-01-30T08:19:50;15.73;;;12.17;;
11504;SDS011;5809;53.262;10.408;2024-01-30T08:22:19;16.33;;;12.17;;
11504;SDS011;5809;53.262;10.408;2024-01-30T08:24:45;14.57;;;12.23;;
11504;SDS011;5809;53.262;10.408;2024-01-30T08:27:12;16.57;;;12.50;;
11504;SDS011;5809;53.262;10.408;2024-01-30T08:29:39;15.70;;;12.20;;
11504;SDS011;5809;53.262;10.408;2024-01-30T08:32:06;15.10;;;11.90;;
11504;SDS011;5809;53.262;10.408;2024-01-30T08:34:33;18.20;;;12.20;;
11504;SDS011;5809;53.262;10.408;2024-01-30T08:37:00;18.20;;;12.00;;
11504;SDS011;5809;53.262;10.408;2024-01-30T08:39:29;15.47;;;11.70;;
11504;SDS011;5809;53.262;10.408;2024-01-30T08:41:56;15.00;;;11.50;;
11504;SDS011;5809;53.262;10.408;2024-01-30T08:44:23;17.63;;;12.20;;
11504;SDS011;5809;53.262;10.408;2024-01-30T08:46:49;18.77;;;11.70;;
11504;SDS011;5809;53.262;10.408;2024-01-30T08:49:16;17.57;;;11.70;;
11504;SDS011;5809;53.262;10.408;2024-01-30T08:51:43;13.33;;;11.43;;
11504;SDS011;5809;53.262;10.408;2024-01-30T08:54:10;18.47;;;11.63;;
11504;SDS011;5809;53.262;10.408;2024-01-30T08:56:38;15.40;;;11.90;;
11504;SDS011;5809;53.262;10.408;2024-01-30T08:59:05;14.90;;;11.37;;
11504;SDS011;5809;53.262;10.408;2024-01-30T09:01:32;15.53;;;11.67;;
11504;SDS011;5809;53.262;10.408;2024-01-30T09:03:59;15.27;;;11.33;;
11504;SDS011;5809;53.262;10.408;2024-01-30T09:06:25;15.73;;;11.53;;
11504;SDS011;5809;53.262;10.408;2024-01-30T09:08:54;17.93;;;11.90;;
11504;SDS011;5809;53.262;10.408;2024-01-30T09:11:23;16.00;;;11.43;;
11504;SDS011;5809;53.262;10.408;2024-01-30T09:13:51;15.33;;;11.20;;
11504;SDS011;5809;53.262;10.408;2024-01-30T09:16:18;16.00;;;11.67;;
11504;SDS011;5809;53.262;10.408;2024-01-30T09:18:44;14.60;;;10.17;;
11504;SDS011;5809;53.262;10.408;2024-01-30T09:21:11;15.50;;;10.87;;
11504;SDS011;5809;53.262;10.408;2024-01-30T09:23:38;15.37;;;10.20;;
11504;SDS011;5809;53.262;10.408;2024-01-30T09:26:05;15.40;;;10.07;;
11504;SDS011;5809;53.262;10.408;2024-01-30T09:28:32;12.20;;;9.90;;
11504;SDS011;5809;53.262;10.408;2024-01-30T09:31:00;16.07;;;10.00;;
11504;SDS011;5809;53.262;10.408;2024-01-30T09:33:27;13.83;;;9.63;;
11504;SDS011;5809;53.262;10.408;2024-01-30T09:35:54;15.07;;;10.00;;
11504;SDS011;5809;53.262;10.408;2024-01-30T09:38:21;11.90;;;8.93;;
11504;SDS011;5809;53.262;10.408;2024-01-30T09:40:49;13.77;;;9.27;;
11504;SDS011;5809;53.262;10.408;2024-01-30T09:43:21;11.70;;;9.00;;
11504;SDS011;5809;53.262;10.408;2024-01-30T09:45:49;11.40;;;8.90;;
11504;SDS011;5809;53.262;10.408;2024-01-30T09:48:18;11.00;;;9.00;;
11504;SDS011;5809;53.262;10.408;2024-01-30T09:50:45;13.10;;;9.53;;
11504;SDS011;5809;53.262;10.408;2024-01-30T09:53:13;15.27;;;11.13;;
11504;SDS011;5809;53.262;10.408;2024-01-30T09:55:40;14.37;;;9.43;;
11504;SDS011;5809;53.262;10.408;2024-01-30T09:58:09;11.57;;;9.30;;
11504;SDS011;5809;53.262;10.408;2024-01-30T10:00:38;14.63;;;9.53;;
11504;SDS011;5809;53.262;10.408;2024-01-30T10:03:05;12.60;;;9.07;;
11504;SDS011;5809;53.262;10.408;2024-01-30T10:05:33;12.03;;;8.80;;
11504;SDS011;5809;53.262;10.408;2024-01-30T10:08:05;12.10;;;8.83;;
11504;SDS011;5809;53.262;10.408;2024-01-30T10:10:33;10.97;;;8.97;;
11504;SDS011;5809;53.262;10.408;2024-01-30T10:13:00;11.50;;;8.80;;
11504;SDS011;5809;53.262;10.408;2024-01-30T10:15:27;12.10;;;8.63;;
11504;SDS011;5809;53.262;10.408;2024-01-30T10:17:54;11.07;;;8.97;;
11504;SDS011;5809;53.262;10.408;2024-01-30T10:20:21;12.37;;;9.07;;
11504;SDS011;5809;53.262;10.408;2024-01-30T10:22:52;10.97;;;8.67;;
11504;SDS011;5809;53.262;10.408;2024-01-30T10:25:18;13.10;;;9.10;;
11504;SDS011;5809;53.262;10.408;2024-01-30T10:27:51;9.87;;;8.23;;
11504;SDS011;5809;53.262;10.408;2024-01-30T10:30:19;13.37;;;8.33;;
11504;SDS011;5809;53.262;10.408;2024-01-30T10:32:46;10.50;;;8.13;;
11504;SDS011;5809;53.262;10.408;2024-01-30T10:35:12;11.32;;;7.70;;
11504;SDS011;5809;53.262;10.408;2024-01-30T10:37:40;11.93;;;8.30;;
11504;SDS011;5809;53.262;10.408;2024-01-30T10:40:12;11.90;;;7.72;;
11504;SDS011;5809;53.262;10.408;2024-01-30T10:42:42;12.88;;;8.05;;
11504;SDS011;5809;53.262;10.408;2024-01-30T10:45:10;11.60;;;8.50;;
11504;SDS011;5809;53.262;10.408;2024-01-30T10:47:39;13.40;;;8.32;;
11504;SDS011;5809;53.262;10.408;2024-01-30T10:50:10;12.18;;;8.30;;
11504;SDS011;5809;53.262;10.408;2024-01-30T10:52:37;10.90;;;8.32;;
11504;SDS011;5809;53.262;10.408;2024-01-30T10:55:07;11.95;;;7.75;;
11504;SDS011;5809;53.262;10.408;2024-01-30T10:57:35;9.85;;;7.85;;
11504;SDS011;5809;53.262;10.408;2024-01-30T11:00:03;11.07;;;7.90;;
11504;SDS011;5809;53.262;10.408;2024-01-30T11:02:35;16.90;;;8.20;;
11504;SDS011;5809;53.262;10.408;2024-01-30T11:05:04;11.85;;;7.57;;
11504;SDS011;5809;53.262;10.408;2024-01-30T11:07:31;9.63;;;7.90;;
11504;SDS011;5809;53.262;10.408;2024-01-30T11:10:02;8.65;;;7.28;;
11504;SDS011;5809;53.262;10.408;2024-01-30T11:12:30;11.48;;;7.47;;
11504;SDS011;5809;53.262;10.408;2024-01-30T11:15:06;14.15;;;7.47;;
11504;SDS011;5809;53.262;10.408;2024-01-30T11:17:44;9.63;;;7.32;;
11504;SDS011;5809;53.262;10.408;2024-01-30T11:20:16;11.85;;;7.97;;
11504;SDS011;5809;53.262;10.408;2024-01-30T11:22:46;11.00;;;7.63;;
11504;SDS011;5809;53.262;10.408;2024-01-30T11:25:13;12.10;;;7.53;;
11504;SDS011;5809;53.262;10.408;2024-01-30T11:27:41;9.68;;;7.10;;
11504;SDS011;5809;53.262;10.408;2024-01-30T11:30:10;12.35;;;7.95;;
11504;SDS011;5809;53.262;10.408;2024-01-30T11:32:37;10.90;;;7.10;;
11504;SDS011;5809;53.262;10.408;2024-01-30T11:35:04;9.93;;;6.70;;
11504;SDS011;5809;53.262;10.408;2024-01-30T11:37:34;8.63;;;7.07;;
11504;SDS011;5809;53.262;10.408;2024-01-30T11:40:04;11.60;;;7.45;;
11504;SDS011;5809;53.262;10.408;2024-01-30T11:42:31;11.90;;;7.72;;
11504;SDS011;5809;53.262;10.408;2024-01-30T11:44:59;15.60;;;9.95;;
11504;SDS011;5809;53.262;10.408;2024-01-30T11:47:28;13.13;;;9.63;;
11504;SDS011;5809;53.262;10.408;2024-01-30T11:49:55;11.48;;;6.95;;
11504;SDS011;5809;53.262;10.408;2024-01-30T11:52:23;10.52;;;7.00;;
11504;SDS011;5809;53.262;10.408;2024-01-30T11:54:50;10.40;;;6.93;;
11504;SDS011;5809;53.262;10.408;2024-01-30T11:57:17;9.27;;;6.43;;
11504;SDS011;5809;53.262;10.408;2024-01-30T11:59:43;7.32;;;6.22;;
11504;SDS011;5809;53.262;10.408;2024-01-30T12:02:15;10.40;;;6.72;;
11504;SDS011;5809;53.262;10.408;2024-01-30T12:04:43;8.63;;;6.28;;
11504;SDS011;5809;53.262;10.408;2024-01-30T12:07:10;7.88;;;5.80;;
11504;SDS011;5809;53.262;10.408;2024-01-30T12:09:37;7.20;;;6.20;;
11504;SDS011;5809;53.262;10.408;2024-01-30T12:12:04;9.43;;;6.38;;
11504;SDS011;5809;53.262;10.408;2024-01-30T12:14:37;10.52;;;6.70;;
11504;SDS011;5809;53.262;10.408;2024-01-30T12:17:04;9.02;;;6.13;;
11504;SDS011;5809;53.262;10.408;2024-01-30T12:19:32;10.32;;;6.10;;
11504;SDS011;5809;53.262;10.408;2024-01-30T12:22:01;9.88;;;6.13;;
11504;SDS011;5809;53.262;10.408;2024-01-30T12:24:28;10.15;;;5.90;;
11504;SDS011;5809;53.262;10.408;2024-01-30T12:26:56;11.63;;;5.88;;
11504;SDS011;5809;53.262;10.408;2024-01-30T12:29:23;7.93;;;6.20;;
11504;SDS011;5809;53.262;10.408;2024-01-30T12:31:52;6.78;;;5.38;;
11504;SDS011;5809;53.262;10.408;2024-01-30T12:34:19;7.10;;;6.18;;
11504;SDS011;5809;53.262;10.408;2024-01-30T12:36:46;7.40;;;5.85;;
11504;SDS011;5809;53.262;10.408;2024-01-30T12:39:15;8.80;;;6.20;;
11504;SDS011;5809;53.262;10.408;2024-01-30T12:41:42;9.00;;;5.70;;
11504;SDS011;5809;53.262;10.408;2024-01-30T12:44:09;6.78;;;5.50;;
11504;SDS011;5809;53.262;10.408;2024-01-30T12:46:36;8.15;;;6.03;;
11504;SDS011;5809;53.262;10.408;2024-01-30T12:49:02;10.07;;;6.80;;
11504;SDS011;5809;53.262;10.408;2024-01-30T12:51:29;7.20;;;6.18;;
11504;SDS011;5809;53.262;10.408;2024-01-30T12:53:56;7.22;;;5.68;;
11504;SDS011;5809;53.262;10.408;2024-01-30T12:56:24;8.75;;;5.97;;
11504;SDS011;5809;53.262;10.408;2024-01-30T12:58:51;10.15;;;6.43;;
11504;SDS011;5809;53.262;10.408;2024-01-30T13:01:18;9.40;;;6.55;;
11504;SDS011;5809;53.262;10.408;2024-01-30T13:03:45;8.38;;;5.88;;
11504;SDS011;5809;53.262;10.408;2024-01-30T13:06:12;7.95;;;5.85;;
11504;SDS011;5809;53.262;10.408;2024-01-30T13:08:38;9.50;;;6.25;;
11504;SDS011;5809;53.262;10.408;2024-01-30T13:11:05;7.18;;;6.05;;
11504;SDS011;5809;53.262;10.408;2024-01-30T13:13:33;7.47;;;5.75;;
11504;SDS011;5809;53.262;10.408;2024-01-30T13:16:01;9.45;;;6.70;;
11504;SDS011;5809;53.262;10.408;2024-01-30T13:18:27;8.30;;;5.93;;
11504;SDS011;5809;53.262;10.408;2024-01-30T13:20:54;9.32;;;6.07;;
11504;SDS011;5809;53.262;10.408;2024-01-30T13:23:21;8.70;;;6.25;;
11504;SDS011;5809;53.262;10.408;2024-01-30T13:25:48;8.50;;;6.43;;
11504;SDS011;5809;53.262;10.408;2024-01-30T13:28:15;11.00;;;5.60;;
11504;SDS011;5809;53.262;10.408;2024-01-30T13:30:43;10.07;;;5.90;;
11504;SDS011;5809;53.262;10.408;2024-01-30T13:33:10;8.77;;;6.07;;
11504;SDS011;5809;53.262;10.408;2024-01-30T13:35:37;9.63;;;6.15;;
11504;SDS011;5809;53.262;10.408;2024-01-30T13:38:04;8.98;;;6.28;;
11504;SDS011;5809;53.262;10.408;2024-01-30T13:40:30;10.35;;;6.93;;
11504;SDS011;5809;53.262;10.408;2024-01-30T13:42:57;10.07;;;6.30;;
11504;SDS011;5809;53.262;10.408;2024-01-30T13:45:24;7.90;;;5.88;;
11504;SDS011;5809;53.262;10.408;2024-01-30T13:47:52;10.27;;;6.55;;
11504;SDS011;5809;53.262;10.408;2024-01-30T13:50:19;10.30;;;6.55;;
11504;SDS011;5809;53.262;10.408;2024-01-30T13:52:46;12.82;;;7.20;;
11504;SDS011;5809;53.262;10.408;2024-01-30T13:55:12;11.20;;;7.80;;
11504;SDS011;5809;53.262;10.408;2024-01-30T13:57:39;9.95;;;6.80;;
11504;SDS011;5809;53.262;10.408;2024-01-30T14:00:07;8.50;;;5.88;;
11504;SDS011;5809;53.262;10.408;2024-01-30T14:02:34;9.80;;;6.57;;
11504;SDS011;5809;53.262;10.408;2024-01-30T14:05:03;10.77;;;7.68;;
11504;SDS011;5809;53.262;10.408;2024-01-30T14:07:31;7.40;;;5.95;;
11504;SDS011;5809;53.262;10.408;2024-01-30T14:09:58;8.77;;;6.40;;
11504;SDS011;5809;53.262;10.408;2024-01-30T14:12:24;8.82;;;6.20;;
11504;SDS011;5809;53.262;10.408;2024-01-30T14:14:51;7.70;;;6.28;;
11504;SDS011;5809;53.262;10.408;2024-01-30T14:17:18;8.57;;;5.97;;
11504;SDS011;5809;53.262;10.408;2024-01-30T14:19:45;9.00;;;6.20;;
11504;SDS011;5809;53.262;10.408;2024-01-30T14:22:13;8.93;;;5.85;;
11504;SDS011;5809;53.262;10.408;2024-01-30T14:24:40;6.95;;;5.53;;
11504;SDS011;5809;53.262;10.408;2024-01-30T14:27:07;11.07;;;7.13;;
11504;SDS011;5809;53.262;10.408;2024-01-30T14:29:34;9.32;;;6.63;;
11504;SDS011;5809;53.262;10.408;2024-01-30T14:32:01;10.82;;;6.47;;
11504;SDS011;5809;53.262;10.408;2024-01-30T14:34:29;8.90;;;7.05;;